Orion Explorer — LNDT — position and weather

sailwx.info

Track history (hours):
 
Tides and Currents Weather Stations Pressure Air Temp Water Temp Dewpoint Dewpoint Depression Visibility Wind Speed Wind Dir Waves Ship Positions

Orion Explorer

Last reported at 2018-Jan-19 21:30 UTC. Time now 2018-Jan-19 21:32 UTC.
Position N 70°26' E 023°39'.

Length 59 m; draft 4.5 m.

Type: Cargo ship. MMSI: 259496000.

Date/timePositionNaut miles runAvg speedWind from/ knotsBaromVisibWave heightAir tempDewpointWater temp
2018-Jan-19 21:30N 70°26' E 023°39'510.2
2018-Jan-19 20:59N 70°22' E 023°29'510.6
2018-Jan-19 20:30N 70°18' E 023°20'3 6.8
2018-Jan-19 20:00N 70°14' E 023°17'0 0.5
2018-Jan-19 19:30N 70°14' E 023°18'1 1.5
2018-Jan-19 19:00N 70°14' E 023°20'2 4.0
2018-Jan-19 18:30N 70°14' E 023°14'510.7
2018-Jan-19 18:00N 70°14' E 022°58'2 3.3
2018-Jan-19 17:30N 70°15' E 022°54'0 0.0
2018-Jan-19 17:00N 70°15' E 022°54'0 0.0
2018-Jan-19 16:30N 70°15' E 022°54'0 0.0
2018-Jan-19 16:00N 70°15' E 022°54'0 0.0
2018-Jan-19 15:30N 70°15' E 022°54'2 3.1
2018-Jan-19 15:00N 70°14' E 022°49'510.3
2018-Jan-19 14:30N 70°15' E 022°35'510.5
2018-Jan-19 14:00N 70°17' E 022°20'510.2
2018-Jan-19 13:30N 70°20' E 022°07'511.0
2018-Jan-19 13:00N 70°22' E 021°52'5 8.7
2018-Jan-19 12:29N 70°23' E 021°39'510.9
2018-Jan-19 12:00N 70°19' E 021°28'510.7
2018-Jan-19 11:30N 70°16' E 021°16'5 9.5
2018-Jan-19 11:00N 70°11' E 021°10'510.8
2018-Jan-19 10:30N 70°06' E 021°16'510.6
2018-Jan-19 10:00N 70°02' E 021°25'510.5
2018-Jan-19 09:30N 69°58' E 021°34'6 4.3
2018-Jan-19 08:07N 69°53' E 021°44'0 0.1
2018-Jan-19 07:19N 69°53' E 021°44'4 2.8
2018-Jan-19 06:04N 69°55' E 021°35'1 9.0
2018-Jan-19 06:00N 69°56' E 021°35'510.0
2018-Jan-19 05:30N 70°00' E 021°30'5 9.6
2018-Jan-19 04:59N 70°03' E 021°17'0 0.2
2018-Jan-19 04:30N 70°03' E 021°17'2 4.1
2018-Jan-19 03:59N 70°01' E 021°13'510.5
2018-Jan-19 03:30N 69°58' E 021°01'510.9
2018-Jan-19 03:00N 69°54' E 020°49'1 2.6
2018-Jan-19 02:30N 69°53' E 020°46'0 0.0
2018-Jan-19 01:59N 69°53' E 020°46'3 6.0
2018-Jan-19 01:30N 69°56' E 020°41'510.1
2018-Jan-19 01:00N 69°57' E 020°27'5 9.3
2018-Jan-19 00:29N 69°59' E 020°14'510.5
2018-Jan-19 00:00N 69°56' E 020°02'510.4
2018-Jan-18 23:30N 69°52' E 019°50'510.3
2018-Jan-18 23:00N 69°50' E 019°37'510.5
2018-Jan-18 22:30N 69°48' E 019°23'510.7
2018-Jan-18 22:00N 69°46' E 019°09'4 7.9
2018-Jan-18 21:30N 69°42' E 019°04'0 0.0
2018-Jan-18 20:59N 69°42' E 019°04'3 5.7
2018-Jan-18 20:30N 69°40' E 018°60'510.8
2018-Jan-18 20:00N 69°35' E 018°51'510.4
2018-Jan-18 19:30N 69°33' E 018°38'510.3
2018-Jan-18 19:00N 69°31' E 018°24'5 9.9
2018-Jan-18 18:30N 69°29' E 018°11'3 5.0
2018-Jan-18 17:59N 69°28' E 018°04'0 0.0
2018-Jan-18 17:30N 69°28' E 018°04'0 0.0
2018-Jan-18 17:00N 69°28' E 018°04'0 0.0
2018-Jan-18 16:30N 69°28' E 018°04'0 0.0
2018-Jan-18 16:00N 69°28' E 018°04'4 7.2
2018-Jan-18 15:30N 69°25' E 018°07'510.2
2018-Jan-18 15:00N 69°20' E 018°02'5 9.9
2018-Jan-18 14:29N 69°15' E 017°58'4 9.4
2018-Jan-18 14:00N 69°11' E 017°60'510.2
2018-Jan-18 13:30N 69°09' E 017°46'3 5.9
2018-Jan-18 12:59N 69°08' E 017°38'510.3
2018-Jan-18 12:30N 69°06' E 017°26'510.2
2018-Jan-18 12:00N 69°02' E 017°17'510.3
2018-Jan-18 11:29N 68°57' E 017°08'510.6
2018-Jan-18 11:00N 68°53' E 016°60'510.7
2018-Jan-18 10:30N 68°49' E 016°52'510.3
2018-Jan-18 10:00N 68°44' E 016°45'510.4
2018-Jan-18 09:30N 68°40' E 016°38'510.0
2018-Jan-18 09:00N 68°35' E 016°32'4 7.5
2018-Jan-18 08:30N 68°34' E 016°23'4 9.0
2018-Jan-18 08:00N 68°32' E 016°12'510.1
2018-Jan-18 07:30N 68°27' E 016°06'510.4
2018-Jan-18 07:00N 68°22' E 016°02'5 9.8
2018-Jan-18 06:30N 68°17' E 016°02'510.4
2018-Jan-18 06:00N 68°13' E 016°09'510.1
2018-Jan-18 05:30N 68°08' E 016°13'4 7.9
2018-Jan-18 05:00N 68°05' E 016°19'0 0.1
2018-Jan-18 04:30N 68°05' E 016°19'3 5.6
2018-Jan-18 04:00N 68°07' E 016°15'4 7.9
2018-Jan-18 03:30N 68°10' E 016°09'0 0.1
2018-Jan-18 03:00N 68°10' E 016°09'0 0.0
2018-Jan-18 02:30N 68°10' E 016°09'1 2.6
2018-Jan-18 02:00N 68°12' E 016°10'510.1
2018-Jan-18 01:30N 68°16' E 016°05'5 9.9
2018-Jan-18 01:00N 68°17' E 015°52'9 9.4
2018-Jan-18 00:00N 68°20' E 015°27'117.6
2018-Jan-17 23:56N 68°20' E 015°25'  
2018-Jan-12 14:59N 70°50' E 024°13'5 9.8
2018-Jan-12 14:30N 70°45' E 024°12'510.0
2018-Jan-12 14:00N 70°40' E 024°11'510.4
2018-Jan-12 13:30N 70°35' E 024°07'510.4
2018-Jan-12 13:00N 70°31' E 023°57'1010.8
2018-Jan-12 12:03N 70°24' E 023°34'111.2
2018-Jan-12 12:00N 70°23' E 023°33'611.1
2018-Jan-12 11:29N 70°19' E 023°23'510.5
2018-Jan-12 11:00N 70°15' E 023°15'1 1.9
2018-Jan-12 10:30N 70°14' E 023°17'1 1.4
2018-Jan-12 09:59N 70°14' E 023°16'510.8
2018-Jan-12 09:29N 70°14' E 023°00'510.6
2018-Jan-12 08:59N 70°14' E 022°44'510.7
2018-Jan-12 08:30N 70°16' E 022°30'510.7
2018-Jan-12 08:00N 70°18' E 022°15'511.0
2018-Jan-12 07:30N 70°21' E 022°01'611.1
2018-Jan-12 07:00N 70°23' E 021°46'5 9.5
2018-Jan-12 06:30N 70°21' E 021°34'611.0
2018-Jan-12 06:00N 70°17' E 021°22'610.8
2018-Jan-12 05:30N 70°14' E 021°10'510.3
2018-Jan-12 05:00N 70°09' E 021°17'510.9
2018-Jan-12 04:30N 70°05' E 021°28'810.8
2018-Jan-12 03:47N 70°01' E 021°47'6 1.4
2018-Jan-11 23:43N 69°57' E 021°35'210.8
2018-Jan-11 23:30N 69°59' E 021°33'510.7
2018-Jan-11 23:00N 70°02' E 021°21'2 3.1
2018-Jan-11 22:30N 70°03' E 021°17'0 0.0
2018-Jan-11 22:00N 70°03' E 021°17'0 0.3
2018-Jan-11 21:30N 70°02' E 021°17'510.1
2018-Jan-11 21:00N 69°59' E 021°06'611.1
2018-Jan-11 20:30N 69°56' E 020°54'3 6.8
2018-Jan-11 20:00N 69°53' E 020°46'0 0.0
2018-Jan-11 19:30N 69°53' E 020°46'2 4.1
2018-Jan-11 19:00N 69°52' E 020°42'0 0.4
2018-Jan-11 18:30N 69°52' E 020°42'0 0.0
2018-Jan-11 17:59N 69°52' E 020°42'1 2.3
2018-Jan-11 17:30N 69°51' E 020°44'2 3.4
2018-Jan-11 16:59N 69°49' E 020°43'2 2.8
2018-Jan-11 16:12N 69°48' E 020°38'2 9.3
2018-Jan-11 16:00N 69°47' E 020°32'510.0
2018-Jan-11 15:30N 69°52' E 020°27'510.3
2018-Jan-11 15:00N 69°57' E 020°23'4 8.0
2018-Jan-11 14:30N 69°58' E 020°12'510.6
2018-Jan-11 14:00N 69°55' E 019°60'510.5
2018-Jan-11 13:30N 69°51' E 019°48'510.5
2018-Jan-11 13:00N 69°49' E 019°34'510.5
2018-Jan-11 12:30N 69°48' E 019°20'510.6
2018-Jan-11 12:00N 69°45' E 019°07'3 6.2
2018-Jan-11 11:30N 69°42' E 019°04'0 0.0
2018-Jan-11 10:59N 69°42' E 019°04'2 5.0
2018-Jan-11 10:29N 69°40' E 019°00'5 9.8
2018-Jan-11 10:00N 69°36' E 018°52'5 9.1
2018-Jan-11 09:30N 69°33' E 018°42'510.4
2018-Jan-11 09:00N 69°31' E 018°28'510.5
2018-Jan-11 08:30N 69°29' E 018°14'5 9.3
2018-Jan-11 08:00N 69°25' E 018°07'510.0
2018-Jan-11 07:29N 69°20' E 018°04'5 9.7
2018-Jan-11 07:00N 69°16' E 017°58'5 9.9
2018-Jan-11 06:31N 69°11' E 018°01'510.2
2018-Jan-11 05:59N 69°09' E 017°48'510.5
2018-Jan-11 05:30N 69°07' E 017°35'510.4
2018-Jan-11 04:59N 69°04' E 017°22'510.3
2018-Jan-11 04:30N 69°00' E 017°13'510.5
2018-Jan-11 03:58N 68°59' E 016°57'510.5
2018-Jan-11 03:30N 68°59' E 016°44'510.4
2018-Jan-11 03:00N 68°59' E 016°29'510.3
2018-Jan-11 02:30N 68°60' E 016°15'510.5
2018-Jan-11 02:00N 68°59' E 016°01'510.4
2018-Jan-11 01:30N 68°59' E 015°47'5 8.9
2018-Jan-11 01:00N 68°56' E 015°36'510.2
2018-Jan-11 00:30N 68°52' E 015°31'510.4
2018-Jan-11 00:00N 68°47' E 015°26'510.2
2018-Jan-10 23:30N 68°42' E 015°26'5 9.8
2018-Jan-10 22:58N 68°38' E 015°17'510.2
2018-Jan-10 22:30N 68°35' E 015°06'3 6.6
2018-Jan-10 22:00N 68°34' E 014°57'0 0.0
2018-Jan-10 21:30N 68°34' E 014°57'0 0.0
2018-Jan-10 21:00N 68°34' E 014°57'0 0.0
2018-Jan-10 20:30N 68°34' E 014°57'0 0.0
2018-Jan-10 19:58N 68°34' E 014°57'0 0.0
2018-Jan-10 19:30N 68°34' E 014°57'0 0.0
2018-Jan-10 19:00N 68°34' E 014°57'0 0.0
2018-Jan-10 18:30N 68°34' E 014°57'0 0.0
2018-Jan-10 18:00N 68°34' E 014°57'0 0.0
2018-Jan-10 17:30N 68°34' E 014°57'1 1.1
2018-Jan-10 16:59N 68°35' E 014°58'0 0.1
2018-Jan-10 16:30N 68°35' E 014°58'3 7.0
2018-Jan-10 16:00N 68°35' E 015°08'611.1
2018-Jan-10 15:29N 68°39' E 015°20'5 9.6
2018-Jan-10 15:00N 68°43' E 015°25'510.8
2018-Jan-10 14:30N 68°48' E 015°26'510.8
2018-Jan-10 14:00N 68°53' E 015°33'510.5
2018-Jan-10 13:30N 68°58' E 015°39'510.5
2018-Jan-10 13:00N 68°60' E 015°53'611.0
2018-Jan-10 12:29N 69°03' E 016°06'510.8
2018-Jan-10 12:00N 69°05' E 016°19'510.5
2018-Jan-10 11:30N 69°08' E 016°32'510.5
2018-Jan-10 11:00N 69°11' E 016°44'510.7
2018-Jan-10 10:30N 69°15' E 016°55'3 5.0
2018-Jan-10 10:00N 69°15' E 017°02'0 0.0
2018-Jan-10 09:30N 69°15' E 017°02'0 0.0
2018-Jan-10 09:00N 69°15' E 017°02'2 4.2
2018-Jan-10 08:30N 69°16' E 016°58'510.0
2018-Jan-10 08:00N 69°20' E 016°51'510.4
2018-Jan-10 07:30N 69°26' E 016°48'510.0
2018-Jan-10 07:00N 69°30' E 016°53'510.5
2018-Jan-10 06:30N 69°33' E 017°07'510.5
2018-Jan-10 06:00N 69°35' E 017°20'5 9.6
2018-Jan-10 05:30N 69°36' E 017°33'510.3
2018-Jan-10 05:00N 69°36' E 017°48'510.1
2018-Jan-10 04:30N 69°33' E 017°60'5 9.1
2018-Jan-10 04:00N 69°28' E 018°04'0 0.2
2018-Jan-10 03:30N 69°28' E 018°04'0 0.0
2018-Jan-10 02:59N 69°28' E 018°04'3 5.7
2018-Jan-10 02:30N 69°26' E 018°07'510.5
2018-Jan-10 02:00N 69°21' E 018°05'510.0
2018-Jan-10 01:30N 69°16' E 017°58'510.3
2018-Jan-10 01:00N 69°11' E 018°01'510.9
2018-Jan-10 00:30N 69°09' E 017°48'510.8
2018-Jan-10 00:00N 69°05' E 017°36'510.8
2018-Jan-09 23:30N 69°01' E 017°28'1 1.5
2018-Jan-09 23:00N 69°00' E 017°27'0 0.0
2018-Jan-09 22:30N 69°00' E 017°27'4 8.6
2018-Jan-09 22:00N 68°56' E 017°26'5 9.6
2018-Jan-09 21:30N 68°51' E 017°28'  
Track history (hours):
 
Tides and Currents Weather Stations Pressure Air Temp Water Temp Dewpoint Dewpoint Depression Visibility Wind Speed Wind Dir Waves Ship Positions

Orion Explorer

Last reported at 2018-Jan-19 21:30 UTC. Time now 2018-Jan-19 21:32 UTC.
Position N 70°26' E 023°39'.

Length 59 m; draft 4.5 m.

Type: Cargo ship. MMSI: 259496000.

Date/timePositionNaut miles runAvg speedWind from/ knotsBaromVisibWave heightAir tempDewpointWater temp
2018-Jan-19 21:30N 70°26' E 023°39'510.2
2018-Jan-19 20:59N 70°22' E 023°29'510.6
2018-Jan-19 20:30N 70°18' E 023°20'3 6.8
2018-Jan-19 20:00N 70°14' E 023°17'0 0.5
2018-Jan-19 19:30N 70°14' E 023°18'1 1.5
2018-Jan-19 19:00N 70°14' E 023°20'2 4.0
2018-Jan-19 18:30N 70°14' E 023°14'510.7
2018-Jan-19 18:00N 70°14' E 022°58'2 3.3
2018-Jan-19 17:30N 70°15' E 022°54'0 0.0
2018-Jan-19 17:00N 70°15' E 022°54'0 0.0
2018-Jan-19 16:30N 70°15' E 022°54'0 0.0
2018-Jan-19 16:00N 70°15' E 022°54'0 0.0
2018-Jan-19 15:30N 70°15' E 022°54'2 3.1
2018-Jan-19 15:00N 70°14' E 022°49'510.3
2018-Jan-19 14:30N 70°15' E 022°35'510.5
2018-Jan-19 14:00N 70°17' E 022°20'510.2
2018-Jan-19 13:30N 70°20' E 022°07'511.0
2018-Jan-19 13:00N 70°22' E 021°52'5 8.7
2018-Jan-19 12:29N 70°23' E 021°39'510.9
2018-Jan-19 12:00N 70°19' E 021°28'510.7
2018-Jan-19 11:30N 70°16' E 021°16'5 9.5
2018-Jan-19 11:00N 70°11' E 021°10'510.8
2018-Jan-19 10:30N 70°06' E 021°16'510.6
2018-Jan-19 10:00N 70°02' E 021°25'510.5
2018-Jan-19 09:30N 69°58' E 021°34'6 4.3
2018-Jan-19 08:07N 69°53' E 021°44'0 0.1
2018-Jan-19 07:19N 69°53' E 021°44'4 2.8
2018-Jan-19 06:04N 69°55' E 021°35'1 9.0
2018-Jan-19 06:00N 69°56' E 021°35'510.0
2018-Jan-19 05:30N 70°00' E 021°30'5 9.6
2018-Jan-19 04:59N 70°03' E 021°17'0 0.2
2018-Jan-19 04:30N 70°03' E 021°17'2 4.1
2018-Jan-19 03:59N 70°01' E 021°13'510.5
2018-Jan-19 03:30N 69°58' E 021°01'510.9
2018-Jan-19 03:00N 69°54' E 020°49'1 2.6
2018-Jan-19 02:30N 69°53' E 020°46'0 0.0
2018-Jan-19 01:59N 69°53' E 020°46'3 6.0
2018-Jan-19 01:30N 69°56' E 020°41'510.1
2018-Jan-19 01:00N 69°57' E 020°27'5 9.3
2018-Jan-19 00:29N 69°59' E 020°14'510.5
2018-Jan-19 00:00N 69°56' E 020°02'510.4
2018-Jan-18 23:30N 69°52' E 019°50'510.3
2018-Jan-18 23:00N 69°50' E 019°37'510.5
2018-Jan-18 22:30N 69°48' E 019°23'510.7
2018-Jan-18 22:00N 69°46' E 019°09'4 7.9
2018-Jan-18 21:30N 69°42' E 019°04'0 0.0
2018-Jan-18 20:59N 69°42' E 019°04'3 5.7
2018-Jan-18 20:30N 69°40' E 018°60'510.8
2018-Jan-18 20:00N 69°35' E 018°51'510.4
2018-Jan-18 19:30N 69°33' E 018°38'510.3
2018-Jan-18 19:00N 69°31' E 018°24'5 9.9
2018-Jan-18 18:30N 69°29' E 018°11'3 5.0
2018-Jan-18 17:59N 69°28' E 018°04'0 0.0
2018-Jan-18 17:30N 69°28' E 018°04'0 0.0
2018-Jan-18 17:00N 69°28' E 018°04'0 0.0
2018-Jan-18 16:30N 69°28' E 018°04'0 0.0
2018-Jan-18 16:00N 69°28' E 018°04'4 7.2
2018-Jan-18 15:30N 69°25' E 018°07'510.2
2018-Jan-18 15:00N 69°20' E 018°02'5 9.9
2018-Jan-18 14:29N 69°15' E 017°58'4 9.4
2018-Jan-18 14:00N 69°11' E 017°60'510.2
2018-Jan-18 13:30N 69°09' E 017°46'3 5.9
2018-Jan-18 12:59N 69°08' E 017°38'510.3
2018-Jan-18 12:30N 69°06' E 017°26'510.2
2018-Jan-18 12:00N 69°02' E 017°17'510.3
2018-Jan-18 11:29N 68°57' E 017°08'510.6
2018-Jan-18 11:00N 68°53' E 016°60'510.7
2018-Jan-18 10:30N 68°49' E 016°52'510.3
2018-Jan-18 10:00N 68°44' E 016°45'510.4
2018-Jan-18 09:30N 68°40' E 016°38'510.0
2018-Jan-18 09:00N 68°35' E 016°32'4 7.5
2018-Jan-18 08:30N 68°34' E 016°23'4 9.0
2018-Jan-18 08:00N 68°32' E 016°12'510.1
2018-Jan-18 07:30N 68°27' E 016°06'510.4
2018-Jan-18 07:00N 68°22' E 016°02'5 9.8
2018-Jan-18 06:30N 68°17' E 016°02'510.4
2018-Jan-18 06:00N 68°13' E 016°09'510.1
2018-Jan-18 05:30N 68°08' E 016°13'4 7.9
2018-Jan-18 05:00N 68°05' E 016°19'0 0.1
2018-Jan-18 04:30N 68°05' E 016°19'3 5.6
2018-Jan-18 04:00N 68°07' E 016°15'4 7.9
2018-Jan-18 03:30N 68°10' E 016°09'0 0.1
2018-Jan-18 03:00N 68°10' E 016°09'0 0.0
2018-Jan-18 02:30N 68°10' E 016°09'1 2.6
2018-Jan-18 02:00N 68°12' E 016°10'510.1
2018-Jan-18 01:30N 68°16' E 016°05'5 9.9
2018-Jan-18 01:00N 68°17' E 015°52'9 9.4
2018-Jan-18 00:00N 68°20' E 015°27'117.6
2018-Jan-17 23:56N 68°20' E 015°25'  
2018-Jan-12 14:59N 70°50' E 024°13'5 9.8
2018-Jan-12 14:30N 70°45' E 024°12'510.0
2018-Jan-12 14:00N 70°40' E 024°11'510.4
2018-Jan-12 13:30N 70°35' E 024°07'510.4
2018-Jan-12 13:00N 70°31' E 023°57'1010.8
2018-Jan-12 12:03N 70°24' E 023°34'111.2
2018-Jan-12 12:00N 70°23' E 023°33'611.1
2018-Jan-12 11:29N 70°19' E 023°23'510.5
2018-Jan-12 11:00N 70°15' E 023°15'1 1.9
2018-Jan-12 10:30N 70°14' E 023°17'1 1.4
2018-Jan-12 09:59N 70°14' E 023°16'510.8
2018-Jan-12 09:29N 70°14' E 023°00'510.6
2018-Jan-12 08:59N 70°14' E 022°44'510.7
2018-Jan-12 08:30N 70°16' E 022°30'510.7
2018-Jan-12 08:00N 70°18' E 022°15'511.0
2018-Jan-12 07:30N 70°21' E 022°01'611.1
2018-Jan-12 07:00N 70°23' E 021°46'5 9.5
2018-Jan-12 06:30N 70°21' E 021°34'611.0
2018-Jan-12 06:00N 70°17' E 021°22'610.8
2018-Jan-12 05:30N 70°14' E 021°10'510.3
2018-Jan-12 05:00N 70°09' E 021°17'510.9
2018-Jan-12 04:30N 70°05' E 021°28'810.8
2018-Jan-12 03:47N 70°01' E 021°47'6 1.4
2018-Jan-11 23:43N 69°57' E 021°35'210.8
2018-Jan-11 23:30N 69°59' E 021°33'510.7
2018-Jan-11 23:00N 70°02' E 021°21'2 3.1
2018-Jan-11 22:30N 70°03' E 021°17'0 0.0
2018-Jan-11 22:00N 70°03' E 021°17'0 0.3
2018-Jan-11 21:30N 70°02' E 021°17'510.1
2018-Jan-11 21:00N 69°59' E 021°06'611.1
2018-Jan-11 20:30N 69°56' E 020°54'3 6.8
2018-Jan-11 20:00N 69°53' E 020°46'0 0.0
2018-Jan-11 19:30N 69°53' E 020°46'2 4.1
2018-Jan-11 19:00N 69°52' E 020°42'0 0.4
2018-Jan-11 18:30N 69°52' E 020°42'0 0.0
2018-Jan-11 17:59N 69°52' E 020°42'1 2.3
2018-Jan-11 17:30N 69°51' E 020°44'2 3.4
2018-Jan-11 16:59N 69°49' E 020°43'2 2.8
2018-Jan-11 16:12N 69°48' E 020°38'2 9.3
2018-Jan-11 16:00N 69°47' E 020°32'510.0
2018-Jan-11 15:30N 69°52' E 020°27'510.3
2018-Jan-11 15:00N 69°57' E 020°23'4 8.0
2018-Jan-11 14:30N 69°58' E 020°12'510.6
2018-Jan-11 14:00N 69°55' E 019°60'510.5
2018-Jan-11 13:30N 69°51' E 019°48'510.5
2018-Jan-11 13:00N 69°49' E 019°34'510.5
2018-Jan-11 12:30N 69°48' E 019°20'510.6
2018-Jan-11 12:00N 69°45' E 019°07'3 6.2
2018-Jan-11 11:30N 69°42' E 019°04'0 0.0
2018-Jan-11 10:59N 69°42' E 019°04'2 5.0
2018-Jan-11 10:29N 69°40' E 019°00'5 9.8
2018-Jan-11 10:00N 69°36' E 018°52'5 9.1
2018-Jan-11 09:30N 69°33' E 018°42'510.4
2018-Jan-11 09:00N 69°31' E 018°28'510.5
2018-Jan-11 08:30N 69°29' E 018°14'5 9.3
2018-Jan-11 08:00N 69°25' E 018°07'510.0
2018-Jan-11 07:29N 69°20' E 018°04'5 9.7
2018-Jan-11 07:00N 69°16' E 017°58'5 9.9
2018-Jan-11 06:31N 69°11' E 018°01'510.2
2018-Jan-11 05:59N 69°09' E 017°48'510.5
2018-Jan-11 05:30N 69°07' E 017°35'510.4
2018-Jan-11 04:59N 69°04' E 017°22'510.3
2018-Jan-11 04:30N 69°00' E 017°13'510.5
2018-Jan-11 03:58N 68°59' E 016°57'510.5
2018-Jan-11 03:30N 68°59' E 016°44'510.4
2018-Jan-11 03:00N 68°59' E 016°29'510.3
2018-Jan-11 02:30N 68°60' E 016°15'510.5
2018-Jan-11 02:00N 68°59' E 016°01'510.4
2018-Jan-11 01:30N 68°59' E 015°47'5 8.9
2018-Jan-11 01:00N 68°56' E 015°36'510.2
2018-Jan-11 00:30N 68°52' E 015°31'510.4
2018-Jan-11 00:00N 68°47' E 015°26'510.2
2018-Jan-10 23:30N 68°42' E 015°26'5 9.8
2018-Jan-10 22:58N 68°38' E 015°17'510.2
2018-Jan-10 22:30N 68°35' E 015°06'3 6.6
2018-Jan-10 22:00N 68°34' E 014°57'0 0.0
2018-Jan-10 21:30N 68°34' E 014°57'0 0.0
2018-Jan-10 21:00N 68°34' E 014°57'0 0.0
2018-Jan-10 20:30N 68°34' E 014°57'0 0.0
2018-Jan-10 19:58N 68°34' E 014°57'0 0.0
2018-Jan-10 19:30N 68°34' E 014°57'0 0.0
2018-Jan-10 19:00N 68°34' E 014°57'0 0.0
2018-Jan-10 18:30N 68°34' E 014°57'0 0.0
2018-Jan-10 18:00N 68°34' E 014°57'0 0.0
2018-Jan-10 17:30N 68°34' E 014°57'1 1.1
2018-Jan-10 16:59N 68°35' E 014°58'0 0.1
2018-Jan-10 16:30N 68°35' E 014°58'3 7.0
2018-Jan-10 16:00N 68°35' E 015°08'611.1
2018-Jan-10 15:29N 68°39' E 015°20'5 9.6
2018-Jan-10 15:00N 68°43' E 015°25'510.8
2018-Jan-10 14:30N 68°48' E 015°26'510.8
2018-Jan-10 14:00N 68°53' E 015°33'510.5
2018-Jan-10 13:30N 68°58' E 015°39'510.5
2018-Jan-10 13:00N 68°60' E 015°53'611.0
2018-Jan-10 12:29N 69°03' E 016°06'510.8
2018-Jan-10 12:00N 69°05' E 016°19'510.5
2018-Jan-10 11:30N 69°08' E 016°32'510.5
2018-Jan-10 11:00N 69°11' E 016°44'510.7
2018-Jan-10 10:30N 69°15' E 016°55'3 5.0
2018-Jan-10 10:00N 69°15' E 017°02'0 0.0
2018-Jan-10 09:30N 69°15' E 017°02'0 0.0
2018-Jan-10 09:00N 69°15' E 017°02'2 4.2
2018-Jan-10 08:30N 69°16' E 016°58'510.0
2018-Jan-10 08:00N 69°20' E 016°51'510.4
2018-Jan-10 07:30N 69°26' E 016°48'510.0
2018-Jan-10 07:00N 69°30' E 016°53'510.5
2018-Jan-10 06:30N 69°33' E 017°07'510.5
2018-Jan-10 06:00N 69°35' E 017°20'5 9.6
2018-Jan-10 05:30N 69°36' E 017°33'510.3
2018-Jan-10 05:00N 69°36' E 017°48'510.1
2018-Jan-10 04:30N 69°33' E 017°60'5 9.1
2018-Jan-10 04:00N 69°28' E 018°04'0 0.2
2018-Jan-10 03:30N 69°28' E 018°04'0 0.0
2018-Jan-10 02:59N 69°28' E 018°04'3 5.7
2018-Jan-10 02:30N 69°26' E 018°07'510.5
2018-Jan-10 02:00N 69°21' E 018°05'510.0
2018-Jan-10 01:30N 69°16' E 017°58'510.3
2018-Jan-10 01:00N 69°11' E 018°01'510.9
2018-Jan-10 00:30N 69°09' E 017°48'510.8
2018-Jan-10 00:00N 69°05' E 017°36'510.8
2018-Jan-09 23:30N 69°01' E 017°28'1 1.5
2018-Jan-09 23:00N 69°00' E 017°27'0 0.0
2018-Jan-09 22:30N 69°00' E 017°27'4 8.6
2018-Jan-09 22:00N 68°56' E 017°26'5 9.6
2018-Jan-09 21:30N 68°51' E 017°28'  

Dump ship's entire track history